^^
Station Historical Data
 
Daily Summary for December 14, 2018 Units:  English    Metric   Both
« Previous Day
Next Day »
Daily Weekly Monthly Yearly Custom
  Current: High: Low: Average:
Temperature: 49.5 °F TemperatureF °F 48.7 °F 48 °F
Dew Point: 40.5 °F DewpointF °F 37.9 °F 39.3 °F
Humidity: 71% Humidity% 66% 69%
Wind Speed: 2mph WindSpeedMPHmph 0mph 1.1mph
Wind Gust: 2mph WindSpeedGustMPHmph - -
WindESE - - SE
Pressure: 30.17 in PressureIn in 30.16 in -
Precipitation: 0 in      
Historical Graphs
 
 
Tabular Data for December 14, 2018
Time Temperature Dew Point Pressure Wind Wind Speed Wind Gust Humidity Rainfall Rate (Hourly)
TemperatureF °F DewpointF °F PressureIn in Calm     Humidity% HourlyPrecipIn in
00:04 48.7 °F 37.9 °F 30.19 in SE 0.9 mph 6 mph 66% 0 in
00:09 48.7 °F 37.9 °F 30.19 in Calm   7 mph 66% 0 in
00:14 48.9 °F 38.5 °F 30.19 in Calm   7 mph 67% 0 in
00:19 49.1 °F 38.7 °F 30.19 in Calm   7 mph 67% 0 in
00:24 49.1 °F 38.7 °F 30.19 in Calm   4 mph 67% 0 in
00:29 49.3 °F 39.6 °F 30.18 in SE 0.9 mph 4 mph 69% 0 in
00:34 49.3 °F 39.6 °F 30.18 in Calm   4 mph 69% 0 in
00:39 49.3 °F 39.6 °F 30.18 in SSE 0.9 mph 7 mph 69% 0 in
00:44 49.1 °F 39.4 °F 30.18 in SSE 0.9 mph 1 mph 69% 0 in
00:49 48.9 °F 39.6 °F 30.18 in SE 0.9 mph 5 mph 70% 0 in
00:54 49.1 °F 39.7 °F 30.18 in Calm   6 mph 70% 0 in
00:59 49.3 °F 40.3 °F 30.18 in Calm   6 mph 71% 0 in
01:04 49.3 °F 40.3 °F 30.18 in Calm   2 mph 71% 0 in
01:09 49.3 °F 40.6 °F 30.18 in Calm   7 mph 72% 0 in
01:14 49.5 °F 40.8 °F 30.17 in Calm   6 mph 72% 0 in
01:19 49.5 °F 40.8 °F 30.18 in SE 6 mph 6 mph 72% 0 in
01:24 49.6 °F 41.4 °F 30.18 in ESE 4.9 mph 7 mph 73% 0 in
01:29 49.6 °F 41.4 °F 30.17 in SE 0.9 mph 5 mph 73% 0 in
01:34 49.6 °F 41.4 °F 30.17 in Calm   4 mph 73% 0 in
01:39 49.6 °F 41.4 °F 30.17 in Calm   5 mph 73% 0 in
01:44 49.6 °F 41.7 °F 30.17 in Calm   1 mph 74% 0 in
01:49 49.6 °F 41.7 °F 30.17 in SE 2 mph 5 mph 74% 0 in
01:54 49.5 °F 41.5 °F 30.17 in East 2 mph 5 mph 74% 0 in
01:59 49.6 °F 41.4 °F 30.16 in Calm   6 mph 73% 0 in
02:04 49.6 °F 41.4 °F 30.17 in Calm   8 mph 73% 0 in
02:09 49.6 °F 41.4 °F 30.18 in ESE 6 mph 7 mph 73% 0 in
02:14 49.6 °F 41.4 °F 30.18 in SE 2 mph 5 mph 73% 0 in
02:19 49.8 °F 41.2 °F 30.18 in SE 4 mph 4 mph 72% 0 in
02:24 49.8 °F 41.2 °F 30.18 in SE 0.9 mph 3 mph 72% 0 in
02:29 49.6 °F 41 °F 30.18 in SSE 0.9 mph 6 mph 72% 0 in
02:34 49.6 °F 40.6 °F 30.18 in Calm   5 mph 71% 0 in
02:39 49.6 °F 41 °F 30.18 in Calm   5 mph 72% 0 in
02:44 49.5 °F 40.8 °F 30.18 in Calm   4 mph 72% 0 in
02:49 49.5 °F 40.5 °F 30.17 in ESE 2 mph 5 mph 71% 0 in
02:54 49.5 °F 40.5 °F 30.17 in ESE 2 mph 2 mph 71% 0 in
Ellijay Weather
Compliments of Weather Underground - 2 mb